Time;durP1;ratioP1;P1;durP2;ratioP2;P2;SDS_P1;SDS_P2;PMS_P1;PMS_P2;Temp;Humidity;BMP_temperature;BMP_pressure;BME280_temperature;BME280_humidity;BME280_pressure;Samples;Min_cycle;Max_cycle;Signal;HPM_P1;HPM_P2
2021/07/28 00:00:29;;;;;;;7.13;4.72;;;;;;;;;;5047255;28;20111;-39
2021/07/28 00:02:54;;;;;;;5.50;3.70;;;;;;;;;;5045841;28;20025;-43
2021/07/28 00:05:20;;;;;;;6.80;3.85;;;;;;;;;;5041815;28;20694;-41
2021/07/28 00:07:45;;;;;;;8.30;4.80;;;;;;;;;;5030481;28;20060;-42
2021/07/28 00:10:11;;;;;;;8.10;4.40;;;;;;;;;;5047100;28;20060;-39
2021/07/28 00:12:36;;;;;;;6.53;3.95;;;;;;;;;;5045108;28;20029;-40
2021/07/28 00:15:02;;;;;;;6.43;4.18;;;;;;;;;;5046414;28;20399;-41
2021/07/28 00:17:28;;;;;;;5.63;3.97;;;;;;;;;;5046929;28;20037;-40
2021/07/28 00:25:07;;;;;;;6.53;4.10;;;;;;;;;;5046790;28;20059;-41
2021/07/28 00:27:34;;;;;;;5.65;4.00;;;;;;;;;;5046890;28;20025;-40
2021/07/28 00:30:00;;;;;;;6.85;4.70;;;;;;;;;;5046953;28;20163;-38
2021/07/28 00:32:25;;;;;;;7.00;4.15;;;;;;;;;;5046701;28;20512;-39
2021/07/28 00:34:50;;;;;;;6.07;4.53;;;;;;;;;;5046385;28;20032;-41
2021/07/28 00:37:15;;;;;;;6.60;4.65;;;;;;;;;;5044311;28;20574;-41
2021/07/28 00:39:41;;;;;;;6.03;4.18;;;;;;;;;;5046146;28;20056;-39
2021/07/28 00:42:06;;;;;;;6.45;4.40;;;;;;;;;;5046683;28;20104;-40
2021/07/28 00:44:31;;;;;;;7.57;4.95;;;;;;;;;;5039877;28;20024;-38
2021/07/28 00:46:57;;;;;;;5.68;4.10;;;;;;;;;;5046145;28;20032;-38
2021/07/28 00:49:23;;;;;;;7.15;4.90;;;;;;;;;;5044702;28;20027;-40
2021/07/28 00:51:49;;;;;;;6.60;4.28;;;;;;;;;;5038572;28;20051;-38
2021/07/28 00:54:14;;;;;;;7.20;4.72;;;;;;;;;;5045971;28;20025;-38
2021/07/28 00:56:39;;;;;;;7.05;5.25;;;;;;;;;;5043321;28;20059;-38
2021/07/28 00:59:08;;;;;;;6.47;4.93;;;;;;;;;;5046086;28;20128;-40
2021/07/28 01:01:36;;;;;;;6.63;4.70;;;;;;;;;;5043053;28;21161;-40
2021/07/28 01:04:01;;;;;;;6.80;5.10;;;;;;;;;;5042933;28;20040;-41
2021/07/28 01:06:27;;;;;;;6.40;4.50;;;;;;;;;;5045907;28;20040;-41
2021/07/28 01:08:52;;;;;;;7.70;4.38;;;;;;;;;;5045035;28;20027;-41
2021/07/28 01:11:25;;;;;;;6.55;4.70;;;;;;;;;;5045651;28;20101;-41
2021/07/28 01:13:50;;;;;;;7.93;4.70;;;;;;;;;;5045662;28;20025;-38
2021/07/28 01:16:25;;;;;;;7.43;4.85;;;;;;;;;;5045882;28;20112;-42
2021/07/28 01:18:51;;;;;;;7.72;5.22;;;;;;;;;;5044403;28;20033;-39
2021/07/28 01:21:19;;;;;;;6.57;4.78;;;;;;;;;;5045914;28;20017;-39
2021/07/28 01:23:46;;;;;;;6.93;4.65;;;;;;;;;;5046020;28;20530;-40
2021/07/28 01:26:14;;;;;;;6.38;4.40;;;;;;;;;;5044168;28;20519;-41
2021/07/28 01:28:39;;;;;;;6.60;5.05;;;;;;;;;;5045264;28;20029;-41
2021/07/28 01:31:17;;;;;;;6.97;4.72;;;;;;;;;;5045386;28;20047;-39
2021/07/28 01:33:45;;;;;;;9.60;5.00;;;;;;;;;;5045790;28;20021;-40
2021/07/28 01:36:18;;;;;;;7.43;4.57;;;;;;;;;;5046033;28;20433;-40
2021/07/28 01:38:43;;;;;;;6.90;4.70;;;;;;;;;;5045243;28;20032;-39
2021/07/28 01:41:09;;;;;;;6.35;4.57;;;;;;;;;;5045667;28;20025;-41
2021/07/28 01:43:36;;;;;;;8.30;5.07;;;;;;;;;;5044938;28;20035;-39
2021/07/28 01:46:03;;;;;;;8.15;5.22;;;;;;;;;;5045668;28;20460;-38
2021/07/28 01:48:28;;;;;;;6.60;5.05;;;;;;;;;;5045180;28;20025;-39
2021/07/28 01:50:54;;;;;;;6.80;5.05;;;;;;;;;;5044189;28;20013;-40
2021/07/28 01:53:21;;;;;;;7.50;5.03;;;;;;;;;;5043561;28;20029;-38
2021/07/28 01:55:46;;;;;;;7.07;5.07;;;;;;;;;;5045355;28;20036;-39
2021/07/28 01:58:12;;;;;;;7.35;4.82;;;;;;;;;;5045501;28;20029;-40
2021/07/28 02:00:39;;;;;;;7.35;5.00;;;;;;;;;;5045162;28;20031;-39
2021/07/28 02:03:04;;;;;;;6.43;5.03;;;;;;;;;;5043216;28;20029;-39
2021/07/28 02:05:35;;;;;;;6.63;5.22;;;;;;;;;;5045688;28;20041;-39
2021/07/28 02:08:03;;;;;;;6.60;5.10;;;;;;;;;;5045179;28;20091;-38
2021/07/28 02:10:33;;;;;;;9.55;5.55;;;;;;;;;;5045181;28;20063;-42
2021/07/28 02:13:01;;;;;;;7.70;4.95;;;;;;;;;;5030507;28;20087;-39
2021/07/28 02:15:26;;;;;;;7.30;4.88;;;;;;;;;;5024417;28;20712;-40
2021/07/28 02:17:52;;;;;;;6.90;5.28;;;;;;;;;;5040230;28;20655;-40
2021/07/28 02:20:18;;;;;;;7.32;4.90;;;;;;;;;;5044916;28;20112;-41
2021/07/28 02:22:45;;;;;;;6.68;4.65;;;;;;;;;;5045840;28;20155;-41
2021/07/28 02:25:11;;;;;;;7.07;5.30;;;;;;;;;;5047937;28;20036;-39
2021/07/28 02:27:37;;;;;;;7.00;5.38;;;;;;;;;;5057242;28;20024;-38
2021/07/28 02:30:04;;;;;;;8.93;5.55;;;;;;;;;;5052575;28;20024;-41
2021/07/28 02:32:29;;;;;;;8.63;5.47;;;;;;;;;;5048420;28;20506;-41
2021/07/28 02:34:55;;;;;;;7.13;5.20;;;;;;;;;;5049171;28;20037;-38
2021/07/28 02:37:20;;;;;;;7.53;5.20;;;;;;;;;;5048341;28;20079;-41
2021/07/28 02:39:45;;;;;;;6.35;4.88;;;;;;;;;;5048242;28;20025;-40
2021/07/28 02:42:11;;;;;;;7.97;5.22;;;;;;;;;;5047432;28;20616;-39
2021/07/28 02:44:36;;;;;;;7.05;5.22;;;;;;;;;;5048283;28;20017;-40
2021/07/28 02:47:01;;;;;;;8.38;5.10;;;;;;;;;;5048478;28;20025;-39
2021/07/28 02:49:27;;;;;;;6.95;4.80;;;;;;;;;;5048622;28;20116;-39
2021/07/28 02:51:52;;;;;;;8.10;5.32;;;;;;;;;;5048185;28;20017;-39
2021/07/28 02:54:21;;;;;;;7.07;5.35;;;;;;;;;;5048543;28;20037;-38
2021/07/28 02:56:46;;;;;;;7.82;5.60;;;;;;;;;;5048358;28;20033;-42
2021/07/28 02:59:11;;;;;;;10.60;5.45;;;;;;;;;;5048796;28;20025;-38
2021/07/28 03:01:37;;;;;;;7.97;5.25;;;;;;;;;;5047279;28;20436;-39
2021/07/28 03:04:03;;;;;;;6.63;5.07;;;;;;;;;;5047058;28;20045;-41
2021/07/28 03:06:28;;;;;;;6.68;4.50;;;;;;;;;;5047064;28;20439;-40
2021/07/28 03:08:53;;;;;;;6.75;4.78;;;;;;;;;;5047962;28;20052;-42
2021/07/28 03:11:19;;;;;;;7.60;4.78;;;;;;;;;;5048847;28;20036;-41
2021/07/28 03:13:44;;;;;;;9.40;5.65;;;;;;;;;;5048324;28;20021;-40
2021/07/28 03:16:09;;;;;;;7.10;5.00;;;;;;;;;;5048356;28;20074;-40
2021/07/28 03:18:35;;;;;;;7.75;5.07;;;;;;;;;;5046416;28;20815;-42
2021/07/28 03:21:00;;;;;;;9.35;4.65;;;;;;;;;;5048179;28;20606;-40
2021/07/28 03:23:26;;;;;;;7.20;5.13;;;;;;;;;;5048347;28;20032;-41
2021/07/28 03:25:51;;;;;;;7.03;4.68;;;;;;;;;;5048078;28;20029;-44
2021/07/28 03:28:16;;;;;;;6.72;5.10;;;;;;;;;;5047785;28;20025;-39
2021/07/28 03:30:42;;;;;;;7.40;5.10;;;;;;;;;;5047969;28;20473;-38
2021/07/28 03:33:07;;;;;;;6.85;5.15;;;;;;;;;;5046630;28;20032;-42
2021/07/28 03:35:33;;;;;;;7.43;5.00;;;;;;;;;;5047925;28;20020;-41
2021/07/28 03:37:58;;;;;;;7.25;5.30;;;;;;;;;;5047450;28;20403;-40
2021/07/28 03:40:23;;;;;;;7.65;4.72;;;;;;;;;;5047132;28;20029;-41
2021/07/28 03:42:49;;;;;;;9.48;5.10;;;;;;;;;;5047826;28;20419;-39
2021/07/28 03:45:14;;;;;;;5.80;4.00;;;;;;;;;;5054461;28;20020;-39
2021/07/28 03:47:39;;;;;;;7.32;4.95;;;;;;;;;;5058945;28;20114;-39
2021/07/28 03:50:05;;;;;;;6.55;4.63;;;;;;;;;;5067738;28;20017;-38
2021/07/28 03:52:31;;;;;;;6.03;4.35;;;;;;;;;;5047655;28;20469;-39
2021/07/28 03:54:56;;;;;;;8.13;4.25;;;;;;;;;;5045418;28;20387;-39
2021/07/28 03:57:21;;;;;;;7.80;5.47;;;;;;;;;;5031714;28;20032;-40
2021/07/28 03:59:47;;;;;;;7.57;4.57;;;;;;;;;;5045530;28;20021;-42
2021/07/28 04:02:13;;;;;;;6.85;4.38;;;;;;;;;;5035980;28;20028;-44
2021/07/28 04:04:39;;;;;;;6.30;3.85;;;;;;;;;;5036990;28;20520;-38
2021/07/28 04:07:06;;;;;;;5.50;3.97;;;;;;;;;;5044506;28;20028;-39
2021/07/28 04:09:31;;;;;;;7.18;4.15;;;;;;;;;;5045232;28;20090;-38
2021/07/28 04:11:57;;;;;;;5.55;4.03;;;;;;;;;;5045229;28;20068;-42
2021/07/28 04:14:22;;;;;;;6.68;4.65;;;;;;;;;;5045504;28;20035;-36
2021/07/28 04:16:48;;;;;;;8.60;4.93;;;;;;;;;;5044309;28;20021;-37
2021/07/28 04:19:13;;;;;;;7.50;5.35;;;;;;;;;;5045214;28;20032;-37
2021/07/28 04:21:38;;;;;;;8.45;5.63;;;;;;;;;;5043058;28;20063;-36
2021/07/28 04:24:04;;;;;;;7.85;5.28;;;;;;;;;;5044667;28;20108;-36
2021/07/28 04:26:29;;;;;;;8.85;5.50;;;;;;;;;;5043275;28;20771;-36
2021/07/28 04:28:55;;;;;;;11.88;6.80;;;;;;;;;;5042945;28;20029;-35
2021/07/28 04:31:20;;;;;;;10.90;7.45;;;;;;;;;;5043227;28;20017;-36
2021/07/28 04:33:45;;;;;;;11.77;8.40;;;;;;;;;;5043854;28;20028;-37
2021/07/28 04:36:10;;;;;;;11.75;7.32;;;;;;;;;;5043465;28;20392;-36
2021/07/28 04:38:36;;;;;;;8.02;6.35;;;;;;;;;;5043412;28;20021;-38
2021/07/28 04:41:01;;;;;;;8.70;5.72;;;;;;;;;;5041889;28;20110;-36
2021/07/28 04:43:27;;;;;;;9.32;5.95;;;;;;;;;;5044656;28;20393;-36
2021/07/28 04:46:03;;;;;;;9.82;6.03;;;;;;;;;;5043641;28;20100;-36
2021/07/28 04:48:30;;;;;;;8.98;4.82;;;;;;;;;;5043771;28;20028;-36
2021/07/28 04:50:56;;;;;;;6.72;4.70;;;;;;;;;;5044131;28;20013;-35
2021/07/28 04:53:22;;;;;;;7.57;4.72;;;;;;;;;;5040070;28;20025;-36
2021/07/28 04:55:55;;;;;;;7.90;4.85;;;;;;;;;;5037817;28;20713;-36
2021/07/28 04:58:21;;;;;;;11.93;5.18;;;;;;;;;;5041949;28;20029;-36
2021/07/28 05:00:50;;;;;;;7.18;4.82;;;;;;;;;;5042809;28;20025;-38
2021/07/28 05:03:16;;;;;;;7.43;5.00;;;;;;;;;;5044166;28;20091;-38
2021/07/28 05:05:42;;;;;;;8.75;4.90;;;;;;;;;;5035432;28;20123;-39
2021/07/28 05:08:08;;;;;;;7.78;4.90;;;;;;;;;;5042144;28;20104;-38
2021/07/28 05:10:34;;;;;;;8.50;4.20;;;;;;;;;;5043145;28;20071;-37
2021/07/28 05:13:00;;;;;;;6.32;4.40;;;;;;;;;;5043340;28;20044;-38
2021/07/28 05:15:26;;;;;;;6.55;4.28;;;;;;;;;;5042799;28;20029;-38
2021/07/28 05:17:51;;;;;;;8.75;4.28;;;;;;;;;;5043303;28;20045;-38
2021/07/28 05:20:17;;;;;;;6.72;4.32;;;;;;;;;;5044119;28;20099;-37
2021/07/28 05:22:43;;;;;;;7.80;4.40;;;;;;;;;;5042849;28;20666;-37
2021/07/28 05:25:09;;;;;;;8.85;4.30;;;;;;;;;;5043333;28;20060;-37
2021/07/28 05:27:34;;;;;;;6.13;3.90;;;;;;;;;;5043674;28;20025;-36
2021/07/28 05:30:00;;;;;;;8.07;4.13;;;;;;;;;;5043487;28;20064;-37
2021/07/28 05:32:26;;;;;;;8.93;4.82;;;;;;;;;;5043987;28;20028;-37
2021/07/28 05:34:52;;;;;;;7.55;4.50;;;;;;;;;;5045711;28;20029;-37
2021/07/28 05:37:17;;;;;;;6.75;4.07;;;;;;;;;;5043040;28;20031;-38
2021/07/28 05:39:43;;;;;;;6.03;3.60;;;;;;;;;;5035209;28;20093;-39
2021/07/28 05:42:08;;;;;;;7.40;4.10;;;;;;;;;;5036408;28;20021;-39
2021/07/28 05:44:33;;;;;;;5.72;3.58;;;;;;;;;;5049775;28;20036;-40
2021/07/28 05:46:59;;;;;;;6.63;3.70;;;;;;;;;;5041972;28;20060;-40
2021/07/28 05:49:24;;;;;;;5.28;3.65;;;;;;;;;;5041863;28;20109;-39
2021/07/28 05:51:49;;;;;;;7.43;4.10;;;;;;;;;;5041954;28;20016;-40
2021/07/28 05:54:15;;;;;;;5.70;3.28;;;;;;;;;;5041949;28;20092;-42
2021/07/28 05:56:40;;;;;;;5.78;3.17;;;;;;;;;;5042606;28;20472;-40
2021/07/28 05:59:05;;;;;;;8.27;3.47;;;;;;;;;;5031255;28;20060;-41
2021/07/28 06:01:31;;;;;;;7.00;3.42;;;;;;;;;;5046218;28;20114;-42
2021/07/28 06:03:56;;;;;;;7.35;3.63;;;;;;;;;;5047932;28;20132;-42
2021/07/28 06:06:25;;;;;;;6.30;3.47;;;;;;;;;;5047189;28;20415;-40
2021/07/28 06:08:51;;;;;;;5.25;3.33;;;;;;;;;;5047304;28;20047;-41
2021/07/28 06:11:16;;;;;;;7.35;3.70;;;;;;;;;;5046998;28;20017;-41
2021/07/28 06:13:41;;;;;;;8.93;3.60;;;;;;;;;;5046824;28;20112;-43
2021/07/28 06:16:07;;;;;;;5.75;3.67;;;;;;;;;;5047633;28;20082;-40
2021/07/28 06:18:33;;;;;;;6.40;3.75;;;;;;;;;;5046034;28;20147;-44
2021/07/28 06:20:59;;;;;;;5.28;3.50;;;;;;;;;;5046673;28;20067;-42
2021/07/28 06:23:24;;;;;;;6.13;3.55;;;;;;;;;;5046077;28;20025;-40
2021/07/28 06:25:49;;;;;;;7.22;3.70;;;;;;;;;;5047558;28;20096;-40
2021/07/28 06:28:15;;;;;;;5.18;3.47;;;;;;;;;;5046861;28;20540;-42
2021/07/28 06:30:40;;;;;;;6.80;3.67;;;;;;;;;;5040162;28;20022;-40
2021/07/28 06:33:05;;;;;;;7.10;3.60;;;;;;;;;;5031663;28;20116;-41
2021/07/28 06:35:31;;;;;;;6.25;3.90;;;;;;;;;;5028885;28;20021;-42
2021/07/28 06:37:56;;;;;;;6.25;3.90;;;;;;;;;;5032674;28;20072;-40
2021/07/28 06:40:21;;;;;;;5.57;3.70;;;;;;;;;;5049287;28;20032;-42
2021/07/28 06:42:47;;;;;;;5.78;3.58;;;;;;;;;;5048757;28;20550;-43
2021/07/28 06:45:12;;;;;;;5.95;3.80;;;;;;;;;;5048725;28;20060;-39
2021/07/28 06:47:38;;;;;;;7.15;3.72;;;;;;;;;;5048482;28;20055;-39
2021/07/28 06:50:04;;;;;;;6.50;3.90;;;;;;;;;;5048961;28;20403;-41
2021/07/28 06:52:29;;;;;;;6.03;3.88;;;;;;;;;;5048423;28;20020;-40
2021/07/28 06:54:54;;;;;;;6.22;3.65;;;;;;;;;;5046770;28;20029;-39
2021/07/28 06:57:19;;;;;;;4.60;3.28;;;;;;;;;;5028531;28;20049;-42
2021/07/28 06:59:45;;;;;;;5.18;3.58;;;;;;;;;;5028320;28;20041;-39
2021/07/28 07:02:10;;;;;;;7.05;3.20;;;;;;;;;;5028575;28;20027;-42
2021/07/28 07:04:35;;;;;;;9.23;3.58;;;;;;;;;;5029073;28;20036;-43
2021/07/28 07:07:01;;;;;;;6.97;3.72;;;;;;;;;;5027449;28;20048;-41
2021/07/28 07:09:26;;;;;;;5.30;3.17;;;;;;;;;;5045878;28;20056;-41
2021/07/28 07:11:51;;;;;;;6.18;3.85;;;;;;;;;;5048163;28;20056;-42
2021/07/28 07:14:16;;;;;;;6.57;3.88;;;;;;;;;;5048421;28;20104;-44
2021/07/28 07:16:42;;;;;;;5.55;3.78;;;;;;;;;;5048290;28;20791;-42
2021/07/28 07:19:07;;;;;;;6.32;3.63;;;;;;;;;;5047641;28;20585;-39
2021/07/28 07:21:32;;;;;;;6.63;3.58;;;;;;;;;;5046073;28;20017;-39
2021/07/28 07:23:58;;;;;;;7.50;4.10;;;;;;;;;;5047574;28;20403;-40
2021/07/28 07:26:23;;;;;;;6.90;4.50;;;;;;;;;;5048491;28;20155;-39
2021/07/28 07:28:48;;;;;;;7.25;3.78;;;;;;;;;;5047764;28;20028;-39
2021/07/28 07:31:14;;;;;;;8.20;4.20;;;;;;;;;;5047964;28;20032;-39
2021/07/28 07:33:40;;;;;;;6.38;3.90;;;;;;;;;;5048133;28;20043;-39
2021/07/28 07:36:10;;;;;;;7.15;3.72;;;;;;;;;;5040723;28;20009;-39
2021/07/28 07:38:36;;;;;;;5.03;3.50;;;;;;;;;;5047514;28;20028;-39
2021/07/28 07:41:03;;;;;;;6.13;3.75;;;;;;;;;;5047929;28;20028;-39
2021/07/28 07:43:28;;;;;;;7.30;4.53;;;;;;;;;;5047810;28;20083;-40
2021/07/28 07:45:55;;;;;;;6.72;4.07;;;;;;;;;;5047686;28;20076;-40
2021/07/28 07:48:20;;;;;;;6.53;3.58;;;;;;;;;;5047206;28;20583;-39
2021/07/28 07:50:46;;;;;;;6.45;3.92;;;;;;;;;;5046820;28;20104;-39
2021/07/28 07:53:12;;;;;;;5.45;3.65;;;;;;;;;;5047667;28;20045;-40
2021/07/28 07:55:38;;;;;;;7.40;4.13;;;;;;;;;;5043983;28;20542;-41
2021/07/28 07:58:03;;;;;;;6.57;3.47;;;;;;;;;;5040441;28;20029;-43
2021/07/28 08:00:30;;;;;;;6.50;3.53;;;;;;;;;;5046881;28;20016;-40
2021/07/28 08:02:55;;;;;;;7.70;3.47;;;;;;;;;;5047412;28;20021;-40
2021/07/28 08:05:20;;;;;;;8.05;3.70;;;;;;;;;;5047046;28;20079;-41
2021/07/28 08:07:46;;;;;;;5.53;3.70;;;;;;;;;;5046538;28;20543;-42
2021/07/28 08:10:11;;;;;;;6.57;3.70;;;;;;;;;;5046416;28;20021;-39
2021/07/28 08:12:37;;;;;;;8.10;3.97;;;;;;;;;;5046489;28;20031;-39
2021/07/28 08:15:03;;;;;;;7.25;3.70;;;;;;;;;;5046614;28;20028;-42
2021/07/28 08:17:28;;;;;;;5.47;3.90;;;;;;;;;;5046866;28;20020;-40
2021/07/28 08:19:54;;;;;;;5.45;3.60;;;;;;;;;;5045012;28;20021;-43
2021/07/28 08:22:19;;;;;;;5.82;3.33;;;;;;;;;;5046573;28;20013;-44
2021/07/28 08:24:44;;;;;;;5.68;3.80;;;;;;;;;;5046065;28;20025;-40
2021/07/28 08:27:10;;;;;;;5.80;3.65;;;;;;;;;;5046606;28;20047;-40
2021/07/28 08:29:35;;;;;;;7.28;3.35;;;;;;;;;;5047057;28;20025;-40
2021/07/28 08:32:00;;;;;;;5.15;3.60;;;;;;;;;;5045698;28;20032;-41
2021/07/28 08:34:25;;;;;;;6.28;3.63;;;;;;;;;;5046735;28;20633;-39
2021/07/28 08:36:51;;;;;;;5.35;3.40;;;;;;;;;;5041095;28;20144;-41
2021/07/28 08:39:17;;;;;;;6.20;3.70;;;;;;;;;;5046891;28;20017;-42
2021/07/28 08:41:47;;;;;;;5.30;3.45;;;;;;;;;;5046005;28;20020;-41
2021/07/28 08:44:17;;;;;;;5.88;3.75;;;;;;;;;;5046390;28;20124;-39
2021/07/28 08:46:43;;;;;;;6.05;3.75;;;;;;;;;;5045668;28;20579;-40
2021/07/28 08:49:12;;;;;;;5.40;3.50;;;;;;;;;;5045519;28;20021;-39
2021/07/28 08:51:38;;;;;;;5.78;3.70;;;;;;;;;;5046002;28;20479;-42
2021/07/28 08:54:04;;;;;;;5.57;3.53;;;;;;;;;;5046403;28;20025;-41
2021/07/28 08:56:30;;;;;;;8.20;3.85;;;;;;;;;;5045016;28;20027;-42
2021/07/28 08:58:55;;;;;;;6.45;3.67;;;;;;;;;;5045085;28;20083;-40
2021/07/28 09:01:21;;;;;;;6.20;3.95;;;;;;;;;;5044021;28;20013;-39
2021/07/28 09:03:46;;;;;;;5.65;3.60;;;;;;;;;;5045317;28;20076;-41
2021/07/28 09:06:28;;;;;;;6.65;3.88;;;;;;;;;;5044216;28;20031;-39
2021/07/28 09:08:59;;;;;;;6.13;3.55;;;;;;;;;;5045512;28;20028;-40
2021/07/28 09:11:24;;;;;;;7.50;3.97;;;;;;;;;;5045396;28;20067;-45
2021/07/28 09:13:55;;;;;;;5.75;3.70;;;;;;;;;;5045793;28;20028;-40
2021/07/28 09:16:21;;;;;;;8.07;3.85;;;;;;;;;;5044489;28;20503;-40
2021/07/28 09:18:51;;;;;;;5.35;3.38;;;;;;;;;;5044261;28;20067;-39
2021/07/28 09:21:19;;;;;;;6.17;4.07;;;;;;;;;;5046005;28;20684;-40
2021/07/28 09:23:46;;;;;;;5.43;3.70;;;;;;;;;;5045223;28;20025;-39
2021/07/28 09:26:42;;;;;;;5.90;3.90;;;;;;;;;;5045281;28;20027;-41
2021/07/28 09:29:15;;;;;;;7.07;4.20;;;;;;;;;;5045051;28;20028;-41
2021/07/28 09:31:43;;;;;;;6.72;3.97;;;;;;;;;;5045199;28;20033;-42
2021/07/28 09:34:30;;;;;;;5.22;3.35;;;;;;;;;;5044751;28;20031;-43
2021/07/28 09:37:04;;;;;;;6.13;3.42;;;;;;;;;;5044944;28;20057;-42
2021/07/28 09:39:39;;;;;;;6.72;3.47;;;;;;;;;;5043590;28;20021;-44
2021/07/28 09:42:13;;;;;;;5.53;3.47;;;;;;;;;;5045670;28;20044;-45
2021/07/28 09:44:43;;;;;;;6.35;3.90;;;;;;;;;;5044541;28;20618;-44
2021/07/28 09:47:12;;;;;;;5.85;3.78;;;;;;;;;;5045424;28;20025;-43
2021/07/28 09:49:40;;;;;;;6.78;4.03;;;;;;;;;;5043043;28;20368;-43
2021/07/28 09:52:29;;;;;;;5.97;3.70;;;;;;;;;;5045192;28;20594;-43
2021/07/28 09:54:56;;;;;;;6.57;4.00;;;;;;;;;;5044385;28;20036;-45
2021/07/28 09:57:23;;;;;;;5.78;3.97;;;;;;;;;;5044755;28;20166;-43
2021/07/28 10:00:15;;;;;;;6.35;4.40;;;;;;;;;;5044654;28;20024;-42
2021/07/28 10:02:41;;;;;;;7.05;3.60;;;;;;;;;;5037677;28;20060;-42
2021/07/28 10:05:08;;;;;;;7.10;3.83;;;;;;;;;;5044444;28;20476;-42
2021/07/28 10:07:36;;;;;;;6.53;3.88;;;;;;;;;;5043819;28;20635;-44
2021/07/28 10:10:03;;;;;;;7.47;4.05;;;;;;;;;;5042250;28;20153;-42
2021/07/28 10:12:29;;;;;;;5.25;3.65;;;;;;;;;;5044655;28;20009;-43
2021/07/28 10:14:56;;;;;;;6.25;3.92;;;;;;;;;;5049071;28;20479;-43
2021/07/28 10:17:22;;;;;;;6.35;3.75;;;;;;;;;;5049792;28;20495;-44
2021/07/28 10:19:51;;;;;;;7.68;3.92;;;;;;;;;;5057807;28;20024;-42
2021/07/28 10:22:17;;;;;;;7.22;3.97;;;;;;;;;;5052004;28;20167;-42
2021/07/28 10:24:45;;;;;;;7.78;4.15;;;;;;;;;;5056533;28;20165;-41
2021/07/28 10:27:11;;;;;;;6.95;4.35;;;;;;;;;;5049823;28;20021;-43
2021/07/28 10:29:37;;;;;;;5.60;3.88;;;;;;;;;;5042216;28;20037;-42
2021/07/28 10:32:03;;;;;;;7.25;4.05;;;;;;;;;;5042643;28;20031;-42
2021/07/28 10:34:30;;;;;;;6.85;3.85;;;;;;;;;;5042989;28;20021;-43
2021/07/28 10:37:01;;;;;;;7.28;4.22;;;;;;;;;;5042315;28;20044;-43
2021/07/28 10:39:52;;;;;;;6.30;4.15;;;;;;;;;;5043097;28;20028;-44
2021/07/28 10:42:18;;;;;;;6.80;4.95;;;;;;;;;;5032703;28;20040;-42
2021/07/28 10:45:04;;;;;;;8.60;5.20;;;;;;;;;;5044513;28;20029;-41
2021/07/28 10:47:35;;;;;;;6.45;4.50;;;;;;;;;;5039122;28;20029;-42
2021/07/28 10:50:02;;;;;;;7.88;4.93;;;;;;;;;;5046202;28;20025;-42
2021/07/28 10:52:35;;;;;;;7.13;4.28;;;;;;;;;;5045921;28;20028;-42
2021/07/28 10:55:00;;;;;;;7.55;4.53;;;;;;;;;;5033040;28;20558;-44
2021/07/28 10:57:35;;;;;;;6.27;4.30;;;;;;;;;;5045374;28;20504;-42
2021/07/28 11:00:08;;;;;;;8.70;4.60;;;;;;;;;;5045787;28;20275;-45
2021/07/28 11:02:54;;;;;;;7.57;4.40;;;;;;;;;;5045582;28;20103;-45
2021/07/28 11:05:24;;;;;;;8.73;4.32;;;;;;;;;;5038904;28;20488;-43
2021/07/28 11:08:02;;;;;;;6.90;3.72;;;;;;;;;;5044739;28;20025;-41
2021/07/28 11:10:45;;;;;;;6.88;4.30;;;;;;;;;;5046551;28;20515;-44
2021/07/28 11:13:13;;;;;;;6.82;4.15;;;;;;;;;;5044963;28;20039;-44
2021/07/28 11:15:40;;;;;;;8.00;4.15;;;;;;;;;;5053605;28;20032;-42
2021/07/28 11:18:06;;;;;;;6.35;4.15;;;;;;;;;;5055511;28;20051;-42
2021/07/28 11:20:32;;;;;;;6.93;4.25;;;;;;;;;;5052224;28;20104;-43
2021/07/28 11:23:29;;;;;;;7.82;4.22;;;;;;;;;;5055580;28;20665;-43
2021/07/28 11:25:56;;;;;;;6.60;3.92;;;;;;;;;;5042055;28;20032;-42
2021/07/28 11:28:23;;;;;;;8.02;4.32;;;;;;;;;;5052665;28;20166;-41
2021/07/28 11:30:59;;;;;;;5.75;3.85;;;;;;;;;;5059478;28;20078;-43
2021/07/28 11:33:25;;;;;;;6.50;3.70;;;;;;;;;;5056070;28;20032;-39
2021/07/28 11:35:52;;;;;;;6.75;3.90;;;;;;;;;;5050298;28;20491;-39
2021/07/28 11:38:31;;;;;;;7.85;4.13;;;;;;;;;;5050473;28;20029;-39
2021/07/28 11:40:58;;;;;;;6.93;4.03;;;;;;;;;;5045843;28;20492;-39
2021/07/28 11:43:40;;;;;;;7.40;4.25;;;;;;;;;;5045185;28;20078;-39
2021/07/28 11:46:13;;;;;;;6.28;3.80;;;;;;;;;;5045331;28;20032;-40
2021/07/28 11:48:44;;;;;;;8.00;3.95;;;;;;;;;;5045206;28;20036;-39
2021/07/28 11:51:10;;;;;;;;;;;;;;;;;;5046473;28;20071;-39
2021/07/28 11:53:36;;;;;;;6.97;3.88;;;;;;;;;;5045385;28;19913;-40
2021/07/28 11:56:13;;;;;;;8.75;3.90;;;;;;;;;;5043523;28;20063;-39
2021/07/28 11:58:50;;;;;;;6.15;3.75;;;;;;;;;;5035699;28;20526;-41
2021/07/28 12:01:27;;;;;;;6.20;3.78;;;;;;;;;;5044656;28;20504;-39
2021/07/28 12:03:58;;;;;;;6.82;3.85;;;;;;;;;;5045364;28;20024;-42
2021/07/28 12:06:35;;;;;;;7.45;3.90;;;;;;;;;;5044809;28;20144;-38
2021/07/28 12:09:18;;;;;;;7.00;3.75;;;;;;;;;;5044601;28;20043;-39
2021/07/28 12:12:15;;;;;;;7.00;4.10;;;;;;;;;;5045157;28;20571;-39
2021/07/28 12:14:48;;;;;;;5.88;3.70;;;;;;;;;;5045219;28;20036;-43
2021/07/28 12:17:13;;;;;;;6.32;3.78;;;;;;;;;;5046715;28;20079;-41
2021/07/28 12:19:40;;;;;;;5.32;3.67;;;;;;;;;;5054664;28;20032;-40
2021/07/28 12:22:13;;;;;;;6.28;3.85;;;;;;;;;;5047683;28;20060;-39
2021/07/28 12:24:47;;;;;;;7.07;3.78;;;;;;;;;;5057757;28;20039;-39
2021/07/28 12:27:24;;;;;;;6.35;3.72;;;;;;;;;;5048185;28;20580;-39
2021/07/28 12:30:18;;;;;;;6.32;3.63;;;;;;;;;;5059206;28;20025;-41
2021/07/28 12:32:47;;;;;;;6.90;4.00;;;;;;;;;;5045121;28;20041;-40
2021/07/28 12:35:25;;;;;;;5.70;3.85;;;;;;;;;;5043970;28;20111;-39
2021/07/28 12:38:15;;;;;;;6.00;3.88;;;;;;;;;;5043394;28;20033;-39
2021/07/28 12:40:48;;;;;;;6.68;3.78;;;;;;;;;;5033410;28;20036;-39
2021/07/28 12:43:13;;;;;;;7.32;4.32;;;;;;;;;;5044094;28;20033;-39
2021/07/28 12:45:39;;;;;;;5.78;3.80;;;;;;;;;;5043906;28;20078;-39
2021/07/28 12:48:05;;;;;;;7.90;3.53;;;;;;;;;;5041606;28;20499;-39
2021/07/28 12:50:32;;;;;;;6.10;3.30;;;;;;;;;;5044805;28;20040;-40
2021/07/28 12:52:57;;;;;;;5.60;3.78;;;;;;;;;;5043854;28;20576;-42
2021/07/28 12:55:23;;;;;;;6.43;3.75;;;;;;;;;;5044257;28;20029;-39
2021/07/28 12:57:48;;;;;;;6.53;3.17;;;;;;;;;;5043588;28;20025;-45
2021/07/28 13:00:14;;;;;;;7.35;3.92;;;;;;;;;;5039828;28;20060;-40
2021/07/28 13:02:40;;;;;;;6.72;3.42;;;;;;;;;;5040741;28;20028;-41
2021/07/28 13:05:07;;;;;;;5.05;3.60;;;;;;;;;;5043777;28;20028;-39
2021/07/28 13:09:58;;;;;;;6.03;4.05;;;;;;;;;;5038218;28;20017;-39
2021/07/28 13:12:23;;;;;;;5.90;3.90;;;;;;;;;;5049048;28;20112;-40
2021/07/28 13:14:48;;;;;;;6.40;3.88;;;;;;;;;;5054849;28;20016;-42
2021/07/28 13:17:14;;;;;;;5.75;3.45;;;;;;;;;;5045820;28;20029;-41
2021/07/28 13:19:39;;;;;;;5.88;3.95;;;;;;;;;;5043985;28;20043;-39
2021/07/28 13:22:05;;;;;;;7.95;3.83;;;;;;;;;;5041966;28;20017;-40
2021/07/28 13:24:30;;;;;;;6.10;3.25;;;;;;;;;;5043742;28;20028;-39
2021/07/28 13:26:55;;;;;;;7.88;3.88;;;;;;;;;;5052860;28;20059;-39
2021/07/28 13:29:21;;;;;;;5.80;3.80;;;;;;;;;;5054878;28;20024;-39
2021/07/28 13:31:46;;;;;;;5.93;3.65;;;;;;;;;;5050529;28;20040;-39
2021/07/28 13:34:11;;;;;;;5.57;3.75;;;;;;;;;;5056092;28;20128;-39
2021/07/28 13:36:37;;;;;;;6.20;3.80;;;;;;;;;;5044574;28;20427;-40
2021/07/28 13:39:03;;;;;;;6.22;3.53;;;;;;;;;;5053962;28;20547;-40
2021/07/28 13:41:30;;;;;;;6.22;3.60;;;;;;;;;;5053610;28;20033;-40
2021/07/28 13:43:55;;;;;;;5.50;3.25;;;;;;;;;;5051917;28;20027;-39
2021/07/28 13:46:20;;;;;;;5.70;3.22;;;;;;;;;;5050456;28;20029;-38
2021/07/28 13:48:46;;;;;;;8.65;3.78;;;;;;;;;;5059188;28;20109;-41
2021/07/28 13:51:11;;;;;;;7.15;3.45;;;;;;;;;;5054660;28;20024;-41
2021/07/28 13:53:37;;;;;;;6.80;3.80;;;;;;;;;;5051102;28;20025;-42
2021/07/28 13:56:02;;;;;;;7.40;3.63;;;;;;;;;;5046705;28;20032;-40
2021/07/28 13:58:27;;;;;;;6.18;3.15;;;;;;;;;;5045306;28;20106;-39
2021/07/28 14:00:53;;;;;;;7.78;3.28;;;;;;;;;;5042198;28;20028;-40
2021/07/28 14:03:18;;;;;;;6.80;3.40;;;;;;;;;;5042271;28;20458;-42
2021/07/28 14:05:44;;;;;;;5.10;3.08;;;;;;;;;;5041063;28;20044;-39
2021/07/28 14:08:09;;;;;;;6.00;3.20;;;;;;;;;;5041929;28;20032;-40
2021/07/28 14:10:34;;;;;;;5.63;2.95;;;;;;;;;;5039772;28;20032;-40
2021/07/28 14:13:00;;;;;;;7.30;3.88;;;;;;;;;;5043959;28;20419;-41
2021/07/28 14:15:25;;;;;;;4.03;2.60;;;;;;;;;;5042600;28;20024;-41
2021/07/28 14:17:51;;;;;;;6.22;2.83;;;;;;;;;;5043519;28;20033;-39
2021/07/28 14:20:16;;;;;;;5.88;2.95;;;;;;;;;;5047252;28;20037;-39
2021/07/28 14:22:41;;;;;;;5.15;3.03;;;;;;;;;;5046480;28;20595;-39
2021/07/28 14:25:07;;;;;;;5.90;3.30;;;;;;;;;;5047135;28;20040;-38
2021/07/28 14:27:33;;;;;;;5.07;3.10;;;;;;;;;;5046546;28;20052;-39
2021/07/28 14:29:58;;;;;;;6.40;3.22;;;;;;;;;;5046891;28;20056;-40
2021/07/28 14:32:23;;;;;;;5.95;2.80;;;;;;;;;;5037165;28;20028;-41
2021/07/28 14:34:49;;;;;;;6.03;3.10;;;;;;;;;;5046893;28;20029;-39
2021/07/28 14:37:15;;;;;;;4.07;2.67;;;;;;;;;;5046626;28;20496;-41
2021/07/28 14:39:41;;;;;;;5.60;3.40;;;;;;;;;;5046045;28;20017;-39
2021/07/28 14:42:06;;;;;;;5.63;3.17;;;;;;;;;;5046572;28;20119;-39
2021/07/28 14:44:32;;;;;;;5.72;2.72;;;;;;;;;;5046533;28;20056;-38
2021/07/28 14:46:57;;;;;;;5.97;3.13;;;;;;;;;;5045939;28;20029;-39
2021/07/28 14:49:23;;;;;;;4.95;2.60;;;;;;;;;;5044227;28;20021;-38
2021/07/28 14:51:48;;;;;;;5.88;2.92;;;;;;;;;;5045108;28;20021;-41